EW6246 Weather Reports


Display with metric or nautical units.
time (UTC)temp
F
wind
direction
speed
MPH
gust
MPH
rain 1hr
in
rain 24hr
in
rain mn
in
humidity
%
barometer
mb
20200712063102 72 70 0.0 1.0 0.00 0.00 0.00 93 958.7
20200712061603 72 126 1.0 2.0 0.00 0.00 0.00 93 958.7
20200712060103 72 163 1.0 1.0 0.00 0.00 0.00 93 959.0
20200712054604 72 153 0.0 0.0 0.00 0.00 0.00 93 959.0
20200712053103 73 146 1.0 2.0 0.00 0.00 0.00 93 959.4
20200712051604 72 212 2.0 2.0 0.00 0.00 0.00 93 959.4
20200712050103 72 292 0.0 2.0 0.00 0.00 0.00 93 959.7
20200712044606 72 177 0.0 1.0 0.00 0.00 0.00 93 960.0
20200712043258 72 223 1.0 0.0 0.00 0.00 0.00 93 960.0
20200712041602 72 159 2.0 2.0 0.00 0.00 0.00 92 960.0
20200712040207 73 211 1.0 1.0 0.00 0.00 0.00 92 960.4
20200712035102 73 301 0.0 0.0 0.00 0.00 0.01 92 960.4
20200712033603 72 110 1.0 3.0 0.00 0.00 0.01 92 960.4
20200712032107 72 159 2.0 2.0 0.00 0.00 0.01 91 960.7
20200712031103 72 286 0.0 1.0 0.00 0.00 0.01 92 960.4
20200712025603 71 176 2.0 2.0 0.00 0.00 0.01 92 960.7
20200712024102 72 220 1.0 1.0 0.00 0.00 0.01 92 960.7
20200712022603 72 108 0.0 2.0 0.00 0.00 0.01 91 960.4
20200712021102 71 209 2.0 2.0 0.00 0.00 0.01 91 960.4
20200712015603 72 231 0.0 1.0 0.00 0.00 0.01 91 960.0
20200712014103 72 114 1.0 1.0 0.00 0.00 0.01 91 960.0
20200712012610 72 132 1.0 2.0 0.00 0.00 0.01 90 960.0
20200712011603 73 93 2.0 2.0 0.00 0.00 0.01 90 960.0
20200712010102 73 78 1.0 2.0 0.00 0.00 0.01 90 959.7
20200712004607 74 50 0.0 3.0 0.00 0.00 0.01 89 959.4
20200712003103 74 81 2.0 2.0 0.00 0.00 0.01 89 959.4
20200712001602 75 40 0.0 3.0 0.00 0.00 0.01 89 959.4
20200712000103 75 30 1.0 2.0 0.00 0.00 0.01 88 959.0
20200711234605 76 108 1.0 1.0 0.00 0.00 0.01 88 959.0
20200711233104 76 357 1.0 1.0 0.00 0.00 0.01 86 959.0
20200711231606 77 53 4.0 4.0 0.00 0.00 0.01 85 958.7
20200711230102 77 80 2.0 3.0 0.00 0.00 0.01 84 958.3
20200711224602 78 56 8.0 8.0 0.00 0.00 0.01 83 958.3
20200711223103 79 48 6.0 6.0 0.00 0.00 0.01 82 958.3
20200711221603 80 14 7.0 7.0 0.00 0.00 0.01 79 958.3
20200711220103 81 87 5.0 7.0 0.00 0.00 0.01 78 958.3
20200711214602 81 72 5.0 9.0 0.00 0.00 0.01 77 958.0
20200711213104 82 37 8.0 8.0 0.00 0.00 0.01 75 958.0
20200711212103 82 24 6.0 7.0 0.00 0.00 0.01 75 958.0
20200711210608 82 93 4.0 4.0 0.00 0.00 0.01 73 958.0
20200711205103 82 34 2.0 8.0 0.00 0.00 0.01 71 957.7
20200711203604 83 97 1.0 3.0 0.00 0.00 0.01 70 958.0
20200711202103 83 55 1.0 2.0 0.00 0.00 0.01 68 958.0
20200711200603 83 44 2.0 2.0 0.00 0.00 0.01 69 958.0
20200711195103 84 101 5.0 5.0 0.00 0.00 0.01 66 958.0
20200711193603 85 137 1.0 3.0 0.00 0.00 0.01 62 958.0
20200711192104 88 324 6.0 6.0 0.00 0.00 0.01 56 958.0
20200711190602 84 282 2.0 3.0 0.00 0.00 0.01 63 958.3
20200711185107 88 96 4.0 4.0 0.00 0.00 0.01 56 958.0
20200711183603 87 98 4.0 4.0 0.00 0.00 0.01 60 958.3
20200711182107 85 133 3.0 4.0 0.00 0.00 0.01 60 958.3
20200711181103 88 133 4.0 4.0 0.00 0.00 0.01 51 958.7
20200711175603 88 42 3.0 3.0 0.00 0.00 0.01 52 958.7
20200711174106 90 17 6.0 6.0 0.00 0.00 0.01 51 959.0
20200711172602 88 59 4.0 5.0 0.00 0.00 0.01 49 959.0
20200711171303 87 32 2.0 2.0 0.00 0.00 0.01 51 959.4
20200711165102 88 49 6.0 6.0 0.00 0.00 0.01 52 959.4
20200711163603 88 18 4.0 9.0 0.00 0.00 0.01 50 959.7
20200711162211 85 272 1.0 1.0 0.00 0.00 0.01 57 959.7
20200711160603 87 21 6.0 6.0 0.00 0.00 0.01 56 960.0
20200711155114 86 14 3.0 3.0 0.00 0.00 0.01 56 960.0
20200711154103 84 241 2.0 4.0 0.00 0.00 0.01 59 960.0
20200711152602 83 337 3.0 3.0 0.00 0.00 0.01 65 960.4
20200711151103 85 3 1.0 3.0 0.00 0.00 0.01 66 960.4
20200711145603 85 152 4.0 6.0 0.00 0.00 0.01 58 960.4
20200711143104 84 44 5.0 5.0 0.00 0.00 0.01 62 960.4
20200711140103 83 56 4.0 6.0 0.00 0.00 0.01 61 960.4
20200711134603 83 28 3.0 3.0 0.00 0.00 0.01 63 960.4
20200711133129 83 21 3.0 3.0 0.00 0.00 0.01 64 960.4
20200711131604 82 154 6.0 6.0 0.00 0.00 0.01 65 960.4
20200711130102 81 32 4.0 4.0 0.00 0.00 0.01 68 960.4
20200711124604 79 349 3.0 3.0 0.00 0.00 0.01 73 960.4
20200711123103 79 319 4.0 4.0 0.00 0.00 0.01 72 960.4
20200711121603 77 357 0.0 1.0 0.00 0.00 0.01 76 960.4
20200711120104 77 294 2.0 2.0 0.00 0.00 0.01 75 960.4
20200711115102 77 288 3.0 3.0 0.00 0.00 0.01 76 960.4
20200711113602 76 322 0.0 2.0 0.00 0.00 0.01 77 960.0
20200711112106 75 123 2.0 2.0 0.00 0.00 0.01 82 960.4
20200711110603 72 44 2.0 2.0 0.00 0.00 0.01 86 960.0
20200711105107 72 168 2.0 2.0 0.00 0.00 0.01 83 960.0
20200711103602 70 308 1.0 2.0 0.00 0.00 0.01 87 960.0
20200711102105 69 156 1.0 2.0 0.00 0.00 0.01 89 960.0
20200711100603 68 158 2.0 2.0 0.00 0.00 0.01 91 959.7
20200711093602 68 130 3.0 3.0 0.00 0.00 0.01 91 959.7
20200711092103 69 163 2.0 2.0 0.00 0.00 0.01 91 959.7
20200711090604 69 189 1.0 1.0 0.00 0.00 0.01 91 959.7
20200711085103 69 198 1.0 3.0 0.00 0.00 0.01 91 959.7
20200711083603 69 213 1.0 2.0 0.00 0.00 0.01 90 959.4
20200711082103 70 242 1.0 3.0 0.00 0.00 0.01 90 959.4
20200711080604 70 167 2.0 2.0 0.00 0.00 0.01 91 959.7
20200711075602 69 188 2.0 2.0 0.00 0.00 0.01 92 959.7
20200711074103 69 177 2.0 2.0 0.00 0.00 0.01 92 959.7
20200711072602 69 246 2.0 2.0 0.00 0.00 0.01 93 959.7
20200711071103 69 144 3.0 3.0 0.00 0.00 0.01 94 959.7
20200711065603 69 109 2.0 2.0 0.00 0.00 0.01 95 959.7